sensor_id;sensor_type;location;lat;lon;timestamp;P1;durP1;ratioP1;P2;durP2;ratioP2
23747;SDS011;12054;53.662;10.126;2022-11-20T00:02:17;7.28;;;4.80;;
23747;SDS011;12054;53.662;10.126;2022-11-20T00:04:43;6.13;;;4.60;;
23747;SDS011;12054;53.662;10.126;2022-11-20T00:07:08;7.13;;;4.38;;
23747;SDS011;12054;53.662;10.126;2022-11-20T00:09:34;7.55;;;4.85;;
23747;SDS011;12054;53.662;10.126;2022-11-20T00:11:59;6.97;;;4.70;;
23747;SDS011;12054;53.662;10.126;2022-11-20T00:14:25;8.35;;;4.65;;
23747;SDS011;12054;53.662;10.126;2022-11-20T00:16:50;8.85;;;4.70;;
23747;SDS011;12054;53.662;10.126;2022-11-20T00:19:16;6.53;;;4.00;;
23747;SDS011;12054;53.662;10.126;2022-11-20T00:21:41;7.80;;;4.50;;
23747;SDS011;12054;53.662;10.126;2022-11-20T00:24:10;7.90;;;4.68;;
23747;SDS011;12054;53.662;10.126;2022-11-20T00:26:35;7.60;;;5.00;;
23747;SDS011;12054;53.662;10.126;2022-11-20T00:29:01;7.13;;;4.60;;
23747;SDS011;12054;53.662;10.126;2022-11-20T00:31:28;6.75;;;4.57;;
23747;SDS011;12054;53.662;10.126;2022-11-20T00:33:54;8.10;;;4.60;;
23747;SDS011;12054;53.662;10.126;2022-11-20T00:36:24;7.93;;;4.55;;
23747;SDS011;12054;53.662;10.126;2022-11-20T00:38:54;9.95;;;4.18;;
23747;SDS011;12054;53.662;10.126;2022-11-20T00:41:21;8.98;;;4.30;;
23747;SDS011;12054;53.662;10.126;2022-11-20T00:43:47;6.65;;;4.38;;
23747;SDS011;12054;53.662;10.126;2022-11-20T00:46:14;4.93;;;3.95;;
23747;SDS011;12054;53.662;10.126;2022-11-20T00:48:42;6.78;;;4.35;;
23747;SDS011;12054;53.662;10.126;2022-11-20T00:51:08;6.50;;;4.15;;
23747;SDS011;12054;53.662;10.126;2022-11-20T00:53:34;8.20;;;4.22;;
23747;SDS011;12054;53.662;10.126;2022-11-20T00:56:00;6.22;;;4.20;;
23747;SDS011;12054;53.662;10.126;2022-11-20T00:58:31;6.75;;;4.65;;
23747;SDS011;12054;53.662;10.126;2022-11-20T01:01:03;6.28;;;4.07;;
23747;SDS011;12054;53.662;10.126;2022-11-20T01:03:37;6.55;;;4.38;;
23747;SDS011;12054;53.662;10.126;2022-11-20T01:08:53;6.68;;;3.88;;
23747;SDS011;12054;53.662;10.126;2022-11-20T01:11:21;6.90;;;3.83;;
23747;SDS011;12054;53.662;10.126;2022-11-20T01:13:49;6.65;;;4.32;;
23747;SDS011;12054;53.662;10.126;2022-11-20T01:16:17;6.80;;;4.45;;
23747;SDS011;12054;53.662;10.126;2022-11-20T01:18:46;6.95;;;3.97;;
23747;SDS011;12054;53.662;10.126;2022-11-20T01:21:14;6.65;;;4.07;;
23747;SDS011;12054;53.662;10.126;2022-11-20T01:23:43;7.40;;;3.95;;
23747;SDS011;12054;53.662;10.126;2022-11-20T01:26:10;5.85;;;4.70;;
23747;SDS011;12054;53.662;10.126;2022-11-20T01:28:40;5.82;;;3.95;;
23747;SDS011;12054;53.662;10.126;2022-11-20T01:31:14;6.68;;;4.07;;
23747;SDS011;12054;53.662;10.126;2022-11-20T01:33:42;6.20;;;4.15;;
23747;SDS011;12054;53.662;10.126;2022-11-20T01:36:09;8.20;;;4.30;;
23747;SDS011;12054;53.662;10.126;2022-11-20T01:38:35;7.20;;;4.28;;
23747;SDS011;12054;53.662;10.126;2022-11-20T01:41:01;5.40;;;4.10;;
23747;SDS011;12054;53.662;10.126;2022-11-20T01:43:27;5.85;;;4.00;;
23747;SDS011;12054;53.662;10.126;2022-11-20T01:48:51;8.15;;;4.22;;
23747;SDS011;12054;53.662;10.126;2022-11-20T01:51:41;5.45;;;4.03;;
23747;SDS011;12054;53.662;10.126;2022-11-20T01:54:12;8.63;;;3.72;;
23747;SDS011;12054;53.662;10.126;2022-11-20T01:56:42;7.05;;;3.97;;
23747;SDS011;12054;53.662;10.126;2022-11-20T01:59:10;6.97;;;3.75;;
23747;SDS011;12054;53.662;10.126;2022-11-20T02:01:38;7.78;;;3.97;;
23747;SDS011;12054;53.662;10.126;2022-11-20T02:04:04;6.25;;;4.20;;
23747;SDS011;12054;53.662;10.126;2022-11-20T02:06:33;6.25;;;4.10;;
23747;SDS011;12054;53.662;10.126;2022-11-20T02:09:03;7.85;;;4.40;;
23747;SDS011;12054;53.662;10.126;2022-11-20T02:11:29;8.77;;;4.40;;
23747;SDS011;12054;53.662;10.126;2022-11-20T02:13:55;7.78;;;3.90;;
23747;SDS011;12054;53.662;10.126;2022-11-20T02:16:23;6.53;;;4.22;;
23747;SDS011;12054;53.662;10.126;2022-11-20T02:18:51;7.35;;;3.97;;
23747;SDS011;12054;53.662;10.126;2022-11-20T02:21:21;8.15;;;4.57;;
23747;SDS011;12054;53.662;10.126;2022-11-20T02:26:20;6.88;;;4.05;;
23747;SDS011;12054;53.662;10.126;2022-11-20T02:28:47;6.72;;;3.78;;
23747;SDS011;12054;53.662;10.126;2022-11-20T02:31:13;7.05;;;4.13;;
23747;SDS011;12054;53.662;10.126;2022-11-20T02:33:39;5.60;;;3.85;;
23747;SDS011;12054;53.662;10.126;2022-11-20T02:36:04;6.05;;;4.03;;
23747;SDS011;12054;53.662;10.126;2022-11-20T02:38:32;6.45;;;4.20;;
23747;SDS011;12054;53.662;10.126;2022-11-20T02:40:58;6.60;;;4.40;;
23747;SDS011;12054;53.662;10.126;2022-11-20T02:43:23;7.25;;;4.10;;
23747;SDS011;12054;53.662;10.126;2022-11-20T02:45:49;7.00;;;4.30;;
23747;SDS011;12054;53.662;10.126;2022-11-20T02:48:14;6.47;;;4.45;;
23747;SDS011;12054;53.662;10.126;2022-11-20T02:50:40;7.07;;;4.18;;
23747;SDS011;12054;53.662;10.126;2022-11-20T02:53:06;7.32;;;4.20;;
23747;SDS011;12054;53.662;10.126;2022-11-20T02:55:32;5.00;;;3.88;;
23747;SDS011;12054;53.662;10.126;2022-11-20T02:57:57;6.57;;;4.22;;
23747;SDS011;12054;53.662;10.126;2022-11-20T03:00:23;7.20;;;4.32;;
23747;SDS011;12054;53.662;10.126;2022-11-20T03:02:48;6.85;;;4.03;;
23747;SDS011;12054;53.662;10.126;2022-11-20T03:05:14;7.38;;;4.53;;
23747;SDS011;12054;53.662;10.126;2022-11-20T03:07:40;8.05;;;3.85;;
23747;SDS011;12054;53.662;10.126;2022-11-20T03:10:05;7.15;;;4.45;;
23747;SDS011;12054;53.662;10.126;2022-11-20T03:12:31;5.20;;;4.00;;
23747;SDS011;12054;53.662;10.126;2022-11-20T03:14:57;6.15;;;3.72;;
23747;SDS011;12054;53.662;10.126;2022-11-20T03:17:22;6.82;;;4.18;;
23747;SDS011;12054;53.662;10.126;2022-11-20T03:19:48;5.20;;;3.55;;
23747;SDS011;12054;53.662;10.126;2022-11-20T03:22:13;5.25;;;3.50;;
23747;SDS011;12054;53.662;10.126;2022-11-20T03:24:39;4.80;;;3.95;;
23747;SDS011;12054;53.662;10.126;2022-11-20T03:27:04;6.97;;;3.88;;
23747;SDS011;12054;53.662;10.126;2022-11-20T03:29:30;5.22;;;4.00;;
23747;SDS011;12054;53.662;10.126;2022-11-20T03:31:55;6.50;;;4.53;;
23747;SDS011;12054;53.662;10.126;2022-11-20T03:34:21;7.20;;;4.10;;
23747;SDS011;12054;53.662;10.126;2022-11-20T03:36:46;9.55;;;4.10;;
23747;SDS011;12054;53.662;10.126;2022-11-20T03:39:12;5.22;;;3.90;;
23747;SDS011;12054;53.662;10.126;2022-11-20T03:41:38;7.95;;;4.32;;
23747;SDS011;12054;53.662;10.126;2022-11-20T03:44:06;5.47;;;3.85;;
23747;SDS011;12054;53.662;10.126;2022-11-20T03:46:33;8.38;;;4.07;;
23747;SDS011;12054;53.662;10.126;2022-11-20T03:48:59;7.40;;;3.97;;
23747;SDS011;12054;53.662;10.126;2022-11-20T03:51:25;6.28;;;3.88;;
23747;SDS011;12054;53.662;10.126;2022-11-20T03:53:53;7.88;;;3.78;;
23747;SDS011;12054;53.662;10.126;2022-11-20T03:56:22;8.80;;;4.20;;
23747;SDS011;12054;53.662;10.126;2022-11-20T03:58:50;6.32;;;3.83;;
23747;SDS011;12054;53.662;10.126;2022-11-20T04:01:17;5.88;;;4.05;;
23747;SDS011;12054;53.662;10.126;2022-11-20T04:03:44;4.82;;;3.58;;
23747;SDS011;12054;53.662;10.126;2022-11-20T04:06:15;6.90;;;3.55;;
23747;SDS011;12054;53.662;10.126;2022-11-20T04:08:42;6.88;;;4.10;;
23747;SDS011;12054;53.662;10.126;2022-11-20T04:11:27;6.10;;;3.90;;
23747;SDS011;12054;53.662;10.126;2022-11-20T04:13:55;4.72;;;3.42;;
23747;SDS011;12054;53.662;10.126;2022-11-20T04:16:25;13.63;;;7.82;;
23747;SDS011;12054;53.662;10.126;2022-11-20T04:18:54;6.53;;;4.25;;
23747;SDS011;12054;53.662;10.126;2022-11-20T04:21:21;5.25;;;3.33;;
23747;SDS011;12054;53.662;10.126;2022-11-20T04:23:48;8.18;;;4.00;;
23747;SDS011;12054;53.662;10.126;2022-11-20T04:26:14;7.60;;;4.10;;
23747;SDS011;12054;53.662;10.126;2022-11-20T04:28:40;6.93;;;3.92;;
23747;SDS011;12054;53.662;10.126;2022-11-20T04:31:06;5.85;;;4.00;;
23747;SDS011;12054;53.662;10.126;2022-11-20T04:33:37;5.55;;;4.00;;
23747;SDS011;12054;53.662;10.126;2022-11-20T04:36:04;6.65;;;4.43;;
23747;SDS011;12054;53.662;10.126;2022-11-20T04:38:31;5.43;;;3.83;;
23747;SDS011;12054;53.662;10.126;2022-11-20T04:41:01;5.38;;;3.80;;
23747;SDS011;12054;53.662;10.126;2022-11-20T04:43:28;7.28;;;4.57;;
23747;SDS011;12054;53.662;10.126;2022-11-20T04:45:54;5.25;;;3.80;;
23747;SDS011;12054;53.662;10.126;2022-11-20T04:48:21;4.93;;;3.72;;
23747;SDS011;12054;53.662;10.126;2022-11-20T04:50:47;7.68;;;3.95;;
23747;SDS011;12054;53.662;10.126;2022-11-20T04:53:13;6.90;;;3.85;;
23747;SDS011;12054;53.662;10.126;2022-11-20T04:55:38;5.55;;;3.85;;
23747;SDS011;12054;53.662;10.126;2022-11-20T04:58:04;6.18;;;3.75;;
23747;SDS011;12054;53.662;10.126;2022-11-20T05:00:29;5.78;;;3.63;;
23747;SDS011;12054;53.662;10.126;2022-11-20T05:02:55;5.25;;;3.55;;
23747;SDS011;12054;53.662;10.126;2022-11-20T05:05:20;7.57;;;3.75;;
23747;SDS011;12054;53.662;10.126;2022-11-20T05:07:46;5.93;;;3.97;;
23747;SDS011;12054;53.662;10.126;2022-11-20T05:10:11;6.10;;;3.92;;
23747;SDS011;12054;53.662;10.126;2022-11-20T05:12:37;6.40;;;4.10;;
23747;SDS011;12054;53.662;10.126;2022-11-20T05:15:03;4.47;;;3.53;;
23747;SDS011;12054;53.662;10.126;2022-11-20T05:17:29;4.65;;;3.47;;
23747;SDS011;12054;53.662;10.126;2022-11-20T05:19:54;5.50;;;3.88;;
23747;SDS011;12054;53.662;10.126;2022-11-20T05:22:20;8.10;;;4.25;;
23747;SDS011;12054;53.662;10.126;2022-11-20T05:24:45;7.15;;;4.07;;
23747;SDS011;12054;53.662;10.126;2022-11-20T05:27:11;5.70;;;3.75;;
23747;SDS011;12054;53.662;10.126;2022-11-20T05:29:36;7.10;;;4.20;;
23747;SDS011;12054;53.662;10.126;2022-11-20T05:32:02;5.93;;;4.03;;
23747;SDS011;12054;53.662;10.126;2022-11-20T05:34:27;6.28;;;4.40;;
23747;SDS011;12054;53.662;10.126;2022-11-20T05:36:53;5.20;;;3.92;;
23747;SDS011;12054;53.662;10.126;2022-11-20T05:39:18;5.50;;;3.92;;
23747;SDS011;12054;53.662;10.126;2022-11-20T05:41:44;5.25;;;3.55;;
23747;SDS011;12054;53.662;10.126;2022-11-20T05:44:10;8.65;;;3.90;;
23747;SDS011;12054;53.662;10.126;2022-11-20T05:46:36;6.80;;;3.85;;
23747;SDS011;12054;53.662;10.126;2022-11-20T05:49:01;7.05;;;4.05;;
23747;SDS011;12054;53.662;10.126;2022-11-20T05:51:27;5.93;;;3.85;;
23747;SDS011;12054;53.662;10.126;2022-11-20T05:53:53;6.38;;;3.70;;
23747;SDS011;12054;53.662;10.126;2022-11-20T05:56:19;7.03;;;4.13;;
23747;SDS011;12054;53.662;10.126;2022-11-20T05:58:46;7.32;;;3.95;;
23747;SDS011;12054;53.662;10.126;2022-11-20T06:01:13;5.05;;;3.58;;
23747;SDS011;12054;53.662;10.126;2022-11-20T06:03:41;7.47;;;4.45;;
23747;SDS011;12054;53.662;10.126;2022-11-20T06:06:14;5.68;;;3.78;;
23747;SDS011;12054;53.662;10.126;2022-11-20T06:08:40;6.82;;;4.00;;
23747;SDS011;12054;53.662;10.126;2022-11-20T06:11:08;6.47;;;3.95;;
23747;SDS011;12054;53.662;10.126;2022-11-20T06:13:34;6.97;;;4.05;;
23747;SDS011;12054;53.662;10.126;2022-11-20T06:16:00;5.70;;;3.50;;
23747;SDS011;12054;53.662;10.126;2022-11-20T06:18:27;6.22;;;3.85;;
23747;SDS011;12054;53.662;10.126;2022-11-20T06:21:04;5.10;;;3.53;;
23747;SDS011;12054;53.662;10.126;2022-11-20T06:23:33;6.20;;;3.45;;
23747;SDS011;12054;53.662;10.126;2022-11-20T06:26:01;6.35;;;4.10;;
23747;SDS011;12054;53.662;10.126;2022-11-20T06:28:34;5.70;;;3.85;;
23747;SDS011;12054;53.662;10.126;2022-11-20T06:31:00;7.70;;;3.92;;
23747;SDS011;12054;53.662;10.126;2022-11-20T06:33:26;5.80;;;4.07;;
23747;SDS011;12054;53.662;10.126;2022-11-20T06:35:52;6.82;;;3.92;;
23747;SDS011;12054;53.662;10.126;2022-11-20T06:38:20;7.03;;;3.85;;
23747;SDS011;12054;53.662;10.126;2022-11-20T06:40:46;5.28;;;3.70;;
23747;SDS011;12054;53.662;10.126;2022-11-20T06:43:11;7.68;;;3.40;;
23747;SDS011;12054;53.662;10.126;2022-11-20T06:45:37;4.65;;;3.50;;
23747;SDS011;12054;53.662;10.126;2022-11-20T06:48:03;5.35;;;3.53;;
23747;SDS011;12054;53.662;10.126;2022-11-20T06:50:28;5.57;;;3.40;;
23747;SDS011;12054;53.662;10.126;2022-11-20T06:52:54;7.07;;;3.85;;
23747;SDS011;12054;53.662;10.126;2022-11-20T06:55:20;8.15;;;4.03;;
23747;SDS011;12054;53.662;10.126;2022-11-20T06:57:45;6.97;;;4.07;;
23747;SDS011;12054;53.662;10.126;2022-11-20T07:00:12;7.60;;;4.00;;
23747;SDS011;12054;53.662;10.126;2022-11-20T07:02:38;4.93;;;3.75;;
23747;SDS011;12054;53.662;10.126;2022-11-20T07:05:04;6.55;;;4.20;;
23747;SDS011;12054;53.662;10.126;2022-11-20T07:07:29;5.80;;;4.00;;
23747;SDS011;12054;53.662;10.126;2022-11-20T07:09:55;7.05;;;4.20;;
23747;SDS011;12054;53.662;10.126;2022-11-20T07:12:20;6.43;;;4.60;;
23747;SDS011;12054;53.662;10.126;2022-11-20T07:14:46;5.90;;;3.90;;
23747;SDS011;12054;53.662;10.126;2022-11-20T07:17:11;9.15;;;4.60;;
23747;SDS011;12054;53.662;10.126;2022-11-20T07:19:37;6.70;;;4.45;;
23747;SDS011;12054;53.662;10.126;2022-11-20T07:22:02;5.47;;;4.35;;
23747;SDS011;12054;53.662;10.126;2022-11-20T07:24:28;8.18;;;4.95;;
23747;SDS011;12054;53.662;10.126;2022-11-20T07:26:53;7.30;;;4.82;;
23747;SDS011;12054;53.662;10.126;2022-11-20T07:29:19;7.72;;;4.80;;
23747;SDS011;12054;53.662;10.126;2022-11-20T07:31:44;7.97;;;4.78;;
23747;SDS011;12054;53.662;10.126;2022-11-20T07:34:10;5.88;;;4.38;;
23747;SDS011;12054;53.662;10.126;2022-11-20T07:36:35;6.97;;;4.50;;
23747;SDS011;12054;53.662;10.126;2022-11-20T07:39:01;6.95;;;4.43;;
23747;SDS011;12054;53.662;10.126;2022-11-20T07:41:26;6.80;;;4.50;;
23747;SDS011;12054;53.662;10.126;2022-11-20T07:43:52;6.80;;;4.28;;
23747;SDS011;12054;53.662;10.126;2022-11-20T07:46:18;6.72;;;4.18;;
23747;SDS011;12054;53.662;10.126;2022-11-20T07:48:43;6.57;;;4.57;;
23747;SDS011;12054;53.662;10.126;2022-11-20T07:51:09;5.57;;;4.28;;
23747;SDS011;12054;53.662;10.126;2022-11-20T07:53:34;8.32;;;4.65;;
23747;SDS011;12054;53.662;10.126;2022-11-20T07:56:00;7.82;;;4.22;;
23747;SDS011;12054;53.662;10.126;2022-11-20T07:58:28;6.75;;;4.60;;
23747;SDS011;12054;53.662;10.126;2022-11-20T08:00:55;6.55;;;4.07;;
23747;SDS011;12054;53.662;10.126;2022-11-20T08:03:20;6.95;;;4.43;;
23747;SDS011;12054;53.662;10.126;2022-11-20T08:05:46;7.40;;;4.20;;
23747;SDS011;12054;53.662;10.126;2022-11-20T08:08:11;8.52;;;4.45;;
23747;SDS011;12054;53.662;10.126;2022-11-20T08:10:37;8.60;;;4.65;;
23747;SDS011;12054;53.662;10.126;2022-11-20T08:13:03;6.97;;;4.90;;
23747;SDS011;12054;53.662;10.126;2022-11-20T08:15:48;7.95;;;4.68;;
23747;SDS011;12054;53.662;10.126;2022-11-20T08:18:15;8.57;;;5.15;;
23747;SDS011;12054;53.662;10.126;2022-11-20T08:20:42;8.50;;;4.95;;
23747;SDS011;12054;53.662;10.126;2022-11-20T08:23:08;6.03;;;4.60;;
23747;SDS011;12054;53.662;10.126;2022-11-20T08:25:34;6.60;;;4.70;;
23747;SDS011;12054;53.662;10.126;2022-11-20T08:28:01;6.28;;;4.57;;
23747;SDS011;12054;53.662;10.126;2022-11-20T08:30:29;7.63;;;4.65;;
23747;SDS011;12054;53.662;10.126;2022-11-20T08:32:59;8.60;;;4.63;;
23747;SDS011;12054;53.662;10.126;2022-11-20T08:35:33;7.22;;;4.93;;
23747;SDS011;12054;53.662;10.126;2022-11-20T08:38:00;8.32;;;4.95;;
23747;SDS011;12054;53.662;10.126;2022-11-20T08:40:26;7.25;;;4.85;;
23747;SDS011;12054;53.662;10.126;2022-11-20T08:42:51;6.60;;;4.50;;
23747;SDS011;12054;53.662;10.126;2022-11-20T08:45:18;7.57;;;4.40;;
23747;SDS011;12054;53.662;10.126;2022-11-20T08:47:44;7.75;;;5.07;;
23747;SDS011;12054;53.662;10.126;2022-11-20T08:50:12;7.20;;;4.88;;
23747;SDS011;12054;53.662;10.126;2022-11-20T08:52:39;7.80;;;4.93;;
23747;SDS011;12054;53.662;10.126;2022-11-20T08:55:05;7.25;;;4.65;;
23747;SDS011;12054;53.662;10.126;2022-11-20T08:57:35;6.88;;;4.30;;
23747;SDS011;12054;53.662;10.126;2022-11-20T09:00:02;6.90;;;4.95;;
23747;SDS011;12054;53.662;10.126;2022-11-20T09:02:29;7.68;;;4.82;;
23747;SDS011;12054;53.662;10.126;2022-11-20T09:04:55;7.97;;;4.80;;
23747;SDS011;12054;53.662;10.126;2022-11-20T09:07:20;6.22;;;4.30;;
23747;SDS011;12054;53.662;10.126;2022-11-20T09:09:46;7.50;;;4.40;;
23747;SDS011;12054;53.662;10.126;2022-11-20T09:12:12;6.75;;;4.68;;
23747;SDS011;12054;53.662;10.126;2022-11-20T09:14:38;7.95;;;4.85;;
23747;SDS011;12054;53.662;10.126;2022-11-20T09:17:04;7.40;;;5.15;;
23747;SDS011;12054;53.662;10.126;2022-11-20T09:19:29;9.35;;;5.15;;
23747;SDS011;12054;53.662;10.126;2022-11-20T09:21:55;8.15;;;5.43;;
23747;SDS011;12054;53.662;10.126;2022-11-20T09:24:20;6.75;;;4.50;;
23747;SDS011;12054;53.662;10.126;2022-11-20T09:26:46;7.38;;;4.60;;
23747;SDS011;12054;53.662;10.126;2022-11-20T09:29:11;6.43;;;4.70;;
23747;SDS011;12054;53.662;10.126;2022-11-20T09:31:37;6.38;;;4.88;;
23747;SDS011;12054;53.662;10.126;2022-11-20T09:34:02;6.97;;;5.30;;
23747;SDS011;12054;53.662;10.126;2022-11-20T09:36:28;6.72;;;4.28;;
23747;SDS011;12054;53.662;10.126;2022-11-20T09:38:54;8.43;;;5.30;;
23747;SDS011;12054;53.662;10.126;2022-11-20T09:47:12;6.32;;;4.97;;
23747;SDS011;12054;53.662;10.126;2022-11-20T09:52:31;6.93;;;4.60;;
23747;SDS011;12054;53.662;10.126;2022-11-20T09:55:16;7.03;;;4.47;;
23747;SDS011;12054;53.662;10.126;2022-11-20T09:57:43;5.60;;;4.28;;
23747;SDS011;12054;53.662;10.126;2022-11-20T10:00:12;6.63;;;4.15;;
23747;SDS011;12054;53.662;10.126;2022-11-20T10:05:27;5.55;;;4.40;;
23747;SDS011;12054;53.662;10.126;2022-11-20T10:10:46;5.78;;;3.50;;
23747;SDS011;12054;53.662;10.126;2022-11-20T10:13:36;5.13;;;3.78;;
23747;SDS011;12054;53.662;10.126;2022-11-20T10:16:18;5.07;;;3.67;;
23747;SDS011;12054;53.662;10.126;2022-11-20T10:32:43;4.75;;;3.70;;
23747;SDS011;12054;53.662;10.126;2022-11-20T10:35:23;5.68;;;3.90;;
23747;SDS011;12054;53.662;10.126;2022-11-20T10:38:01;6.15;;;3.97;;
23747;SDS011;12054;53.662;10.126;2022-11-20T10:40:34;6.70;;;4.13;;
23747;SDS011;12054;53.662;10.126;2022-11-20T10:43:08;6.53;;;4.18;;
23747;SDS011;12054;53.662;10.126;2022-11-20T10:45:46;6.35;;;4.10;;
23747;SDS011;12054;53.662;10.126;2022-11-20T10:48:22;7.20;;;4.28;;
23747;SDS011;12054;53.662;10.126;2022-11-20T10:51:33;8.43;;;3.80;;
23747;SDS011;12054;53.662;10.126;2022-11-20T10:53:57;5.93;;;3.80;;
23747;SDS011;12054;53.662;10.126;2022-11-20T10:56:45;5.20;;;4.30;;
23747;SDS011;12054;53.662;10.126;2022-11-20T11:02:00;7.40;;;4.05;;
23747;SDS011;12054;53.662;10.126;2022-11-20T11:04:30;5.28;;;3.70;;
23747;SDS011;12054;53.662;10.126;2022-11-20T11:09:50;4.88;;;3.70;;
23747;SDS011;12054;53.662;10.126;2022-11-20T11:12:18;4.40;;;3.85;;
23747;SDS011;12054;53.662;10.126;2022-11-20T11:14:46;5.25;;;4.00;;
23747;SDS011;12054;53.662;10.126;2022-11-20T11:17:28;5.60;;;4.10;;
23747;SDS011;12054;53.662;10.126;2022-11-20T11:19:59;6.72;;;4.30;;
23747;SDS011;12054;53.662;10.126;2022-11-20T11:22:32;5.13;;;3.65;;
23747;SDS011;12054;53.662;10.126;2022-11-20T11:25:11;5.53;;;4.00;;
23747;SDS011;12054;53.662;10.126;2022-11-20T11:28:02;4.82;;;3.35;;
23747;SDS011;12054;53.662;10.126;2022-11-20T11:30:29;4.65;;;3.58;;
23747;SDS011;12054;53.662;10.126;2022-11-20T11:33:06;4.50;;;3.40;;
23747;SDS011;12054;53.662;10.126;2022-11-20T11:35:42;4.55;;;3.08;;
23747;SDS011;12054;53.662;10.126;2022-11-20T11:38:18;4.20;;;3.00;;
23747;SDS011;12054;53.662;10.126;2022-11-20T11:40:47;3.50;;;2.90;;
23747;SDS011;12054;53.662;10.126;2022-11-20T11:43:17;4.35;;;2.92;;
23747;SDS011;12054;53.662;10.126;2022-11-20T11:51:39;5.13;;;3.10;;
23747;SDS011;12054;53.662;10.126;2022-11-20T11:54:22;4.18;;;3.08;;
23747;SDS011;12054;53.662;10.126;2022-11-20T11:56:51;3.08;;;2.78;;
23747;SDS011;12054;53.662;10.126;2022-11-20T11:59:29;3.38;;;3.00;;
23747;SDS011;12054;53.662;10.126;2022-11-20T12:02:57;3.60;;;2.78;;
23747;SDS011;12054;53.662;10.126;2022-11-20T12:05:03;3.63;;;2.78;;
23747;SDS011;12054;53.662;10.126;2022-11-20T12:15:59;2.55;;;2.33;;
23747;SDS011;12054;53.662;10.126;2022-11-20T12:18:25;3.50;;;2.58;;
23747;SDS011;12054;53.662;10.126;2022-11-20T12:20:55;3.10;;;2.58;;
23747;SDS011;12054;53.662;10.126;2022-11-20T12:26:19;3.60;;;2.50;;
23747;SDS011;12054;53.662;10.126;2022-11-20T12:34:05;2.92;;;2.63;;
23747;SDS011;12054;53.662;10.126;2022-11-20T12:36:54;3.78;;;2.60;;
23747;SDS011;12054;53.662;10.126;2022-11-20T12:39:42;3.83;;;3.00;;
23747;SDS011;12054;53.662;10.126;2022-11-20T12:45:18;3.80;;;2.53;;
23747;SDS011;12054;53.662;10.126;2022-11-20T12:48:18;4.30;;;2.80;;
23747;SDS011;12054;53.662;10.126;2022-11-20T12:54:06;2.70;;;2.38;;
23747;SDS011;12054;53.662;10.126;2022-11-20T12:57:15;3.30;;;2.83;;
23747;SDS011;12054;53.662;10.126;2022-11-20T13:02:57;5.38;;;3.53;;
23747;SDS011;12054;53.662;10.126;2022-11-20T13:05:26;3.80;;;3.00;;
23747;SDS011;12054;53.662;10.126;2022-11-20T13:08:34;3.70;;;2.88;;
23747;SDS011;12054;53.662;10.126;2022-11-20T13:11:11;3.42;;;2.72;;
23747;SDS011;12054;53.662;10.126;2022-11-20T13:19:30;4.13;;;3.20;;
23747;SDS011;12054;53.662;10.126;2022-11-20T13:21:59;3.10;;;2.63;;
23747;SDS011;12054;53.662;10.126;2022-11-20T13:24:26;2.80;;;2.38;;
23747;SDS011;12054;53.662;10.126;2022-11-20T13:29:43;4.07;;;2.80;;
23747;SDS011;12054;53.662;10.126;2022-11-20T13:32:15;3.08;;;2.67;;
23747;SDS011;12054;53.662;10.126;2022-11-20T13:37:39;3.33;;;2.90;;
23747;SDS011;12054;53.662;10.126;2022-11-20T13:45:54;3.75;;;2.78;;
23747;SDS011;12054;53.662;10.126;2022-11-20T13:48:31;2.85;;;2.55;;
23747;SDS011;12054;53.662;10.126;2022-11-20T13:53:42;3.95;;;3.00;;
23747;SDS011;12054;53.662;10.126;2022-11-20T13:56:34;4.30;;;2.70;;
23747;SDS011;12054;53.662;10.126;2022-11-20T14:01:39;4.70;;;3.20;;
23747;SDS011;12054;53.662;10.126;2022-11-20T14:04:08;3.05;;;2.75;;
23747;SDS011;12054;53.662;10.126;2022-11-20T14:06:41;3.80;;;2.63;;
23747;SDS011;12054;53.662;10.126;2022-11-20T14:09:12;3.67;;;2.90;;
23747;SDS011;12054;53.662;10.126;2022-11-20T14:11:49;3.58;;;2.97;;
23747;SDS011;12054;53.662;10.126;2022-11-20T14:14:16;3.85;;;2.75;;
23747;SDS011;12054;53.662;10.126;2022-11-20T14:16:44;3.30;;;2.85;;
23747;SDS011;12054;53.662;10.126;2022-11-20T14:19:21;3.58;;;3.00;;
23747;SDS011;12054;53.662;10.126;2022-11-20T14:22:07;3.80;;;2.92;;
23747;SDS011;12054;53.662;10.126;2022-11-20T14:24:47;4.40;;;3.40;;
23747;SDS011;12054;53.662;10.126;2022-11-20T14:27:18;4.07;;;3.15;;
23747;SDS011;12054;53.662;10.126;2022-11-20T14:29:46;4.68;;;3.30;;
23747;SDS011;12054;53.662;10.126;2022-11-20T14:32:14;5.90;;;3.70;;
23747;SDS011;12054;53.662;10.126;2022-11-20T14:34:42;5.68;;;4.07;;
23747;SDS011;12054;53.662;10.126;2022-11-20T14:37:11;10.80;;;5.30;;
23747;SDS011;12054;53.662;10.126;2022-11-20T14:39:42;5.78;;;3.95;;
23747;SDS011;12054;53.662;10.126;2022-11-20T14:42:18;6.07;;;4.57;;
23747;SDS011;12054;53.662;10.126;2022-11-20T14:44:46;4.22;;;3.50;;
23747;SDS011;12054;53.662;10.126;2022-11-20T14:47:13;4.88;;;3.88;;
23747;SDS011;12054;53.662;10.126;2022-11-20T14:49:43;7.70;;;5.25;;
23747;SDS011;12054;53.662;10.126;2022-11-20T14:52:23;9.15;;;3.50;;
23747;SDS011;12054;53.662;10.126;2022-11-20T14:54:52;4.47;;;3.65;;
23747;SDS011;12054;53.662;10.126;2022-11-20T14:57:22;3.85;;;3.40;;
23747;SDS011;12054;53.662;10.126;2022-11-20T14:59:51;5.75;;;4.20;;
23747;SDS011;12054;53.662;10.126;2022-11-20T15:02:16;5.50;;;4.18;;
23747;SDS011;12054;53.662;10.126;2022-11-20T15:04:49;5.78;;;3.83;;
23747;SDS011;12054;53.662;10.126;2022-11-20T15:07:26;4.10;;;3.70;;
23747;SDS011;12054;53.662;10.126;2022-11-20T15:10:06;4.35;;;3.47;;
23747;SDS011;12054;53.662;10.126;2022-11-20T15:12:46;3.90;;;3.17;;
23747;SDS011;12054;53.662;10.126;2022-11-20T15:15:16;4.75;;;3.25;;
23747;SDS011;12054;53.662;10.126;2022-11-20T15:17:46;5.40;;;3.47;;
23747;SDS011;12054;53.662;10.126;2022-11-20T15:20:13;5.70;;;3.83;;
23747;SDS011;12054;53.662;10.126;2022-11-20T15:22:40;8.75;;;5.88;;
23747;SDS011;12054;53.662;10.126;2022-11-20T15:25:13;8.65;;;6.60;;
23747;SDS011;12054;53.662;10.126;2022-11-20T15:27:40;7.22;;;5.55;;
23747;SDS011;12054;53.662;10.126;2022-11-20T15:30:17;12.73;;;9.23;;
23747;SDS011;12054;53.662;10.126;2022-11-20T15:32:44;5.82;;;4.75;;
23747;SDS011;12054;53.662;10.126;2022-11-20T15:35:11;7.28;;;4.50;;
23747;SDS011;12054;53.662;10.126;2022-11-20T15:37:38;5.63;;;4.72;;
23747;SDS011;12054;53.662;10.126;2022-11-20T15:40:04;6.32;;;4.30;;
23747;SDS011;12054;53.662;10.126;2022-11-20T15:42:30;5.15;;;4.25;;
23747;SDS011;12054;53.662;10.126;2022-11-20T15:44:57;5.40;;;4.22;;
23747;SDS011;12054;53.662;10.126;2022-11-20T15:47:24;5.97;;;4.55;;
23747;SDS011;12054;53.662;10.126;2022-11-20T15:49:55;8.57;;;4.80;;
23747;SDS011;12054;53.662;10.126;2022-11-20T15:52:20;11.25;;;6.18;;
23747;SDS011;12054;53.662;10.126;2022-11-20T15:54:46;7.43;;;4.80;;
23747;SDS011;12054;53.662;10.126;2022-11-20T15:57:12;7.18;;;4.88;;
23747;SDS011;12054;53.662;10.126;2022-11-20T15:59:37;11.45;;;5.00;;
23747;SDS011;12054;53.662;10.126;2022-11-20T16:02:12;7.97;;;5.03;;
23747;SDS011;12054;53.662;10.126;2022-11-20T16:04:40;8.80;;;5.50;;
23747;SDS011;12054;53.662;10.126;2022-11-20T16:07:06;8.35;;;5.60;;
23747;SDS011;12054;53.662;10.126;2022-11-20T16:09:32;8.43;;;5.45;;
23747;SDS011;12054;53.662;10.126;2022-11-20T16:11:57;8.27;;;5.57;;
23747;SDS011;12054;53.662;10.126;2022-11-20T16:14:24;8.15;;;5.85;;
23747;SDS011;12054;53.662;10.126;2022-11-20T16:17:09;9.85;;;6.80;;
23747;SDS011;12054;53.662;10.126;2022-11-20T16:19:34;8.15;;;6.05;;
23747;SDS011;12054;53.662;10.126;2022-11-20T16:22:00;8.40;;;6.22;;